Time;durP1;ratioP1;P1;durP2;ratioP2;P2;SDS_P1;SDS_P2;PMS_P1;PMS_P2;Temp;Humidity;BMP_temperature;BMP_pressure;BME280_temperature;BME280_humidity;BME280_pressure;Samples;Min_cycle;Max_cycle;Signal;HPM_P1;HPM_P2
2021/03/18 00:01:19;;;;;;;9.52;6.95;;;;;;;2.31;94.24;101353.63;4995676;28;20076;-72
2021/03/18 00:03:48;;;;;;;14.20;6.32;;;;;;;2.41;94.07;101356.22;4995249;28;20050;-72
2021/03/18 00:06:15;;;;;;;9.52;6.32;;;;;;;2.26;94.30;101334.38;4996399;28;20101;-72
2021/03/18 00:08:42;;;;;;;8.93;7.10;;;;;;;2.34;94.10;101333.44;4996292;28;20427;-72
2021/03/18 00:11:13;;;;;;;14.48;6.93;;;;;;;2.32;94.43;101336.09;4996616;28;20054;-72
2021/03/18 00:13:40;;;;;;;9.68;6.55;;;;;;;2.27;93.97;101343.16;4995118;28;20428;-71
2021/03/18 00:16:07;;;;;;;13.45;6.88;;;;;;;2.22;94.55;101334.44;4996198;28;20050;-72
2021/03/18 00:18:39;;;;;;;14.35;7.72;;;;;;;2.21;94.67;101335.28;4996070;28;20108;-71
2021/03/18 00:21:06;;;;;;;12.88;7.22;;;;;;;2.15;94.56;101334.47;4996148;28;20050;-71
2021/03/18 00:23:33;;;;;;;13.30;7.25;;;;;;;2.08;94.42;101313.44;4996348;28;20104;-72
2021/03/18 00:26:00;;;;;;;8.98;6.55;;;;;;;2.10;94.40;101316.91;4996313;28;20113;-71
2021/03/18 00:28:28;;;;;;;11.05;7.40;;;;;;;2.05;94.40;101310.84;4996272;28;20061;-72
2021/03/18 00:30:54;;;;;;;9.48;6.97;;;;;;;2.08;94.49;101313.44;4995065;28;20105;-72
2021/03/18 00:33:21;;;;;;;11.32;7.53;;;;;;;2.12;94.54;101313.41;4994858;28;20142;-72
2021/03/18 00:35:48;;;;;;;11.90;7.95;;;;;;;2.16;94.30;101314.25;4995903;28;20050;-71
2021/03/18 00:38:15;;;;;;;10.85;7.10;;;;;;;2.14;94.27;101300.22;4995995;28;20101;-71
2021/03/18 00:40:44;;;;;;;11.32;7.47;;;;;;;2.19;94.60;101306.34;4995741;28;20116;-72
2021/03/18 00:43:13;;;;;;;11.32;7.18;;;;;;;2.26;94.11;101318.56;4996319;28;20062;-72
2021/03/18 00:45:43;;;;;;;14.10;6.63;;;;;;;2.20;93.85;101305.44;4997240;28;20066;-72
2021/03/18 00:48:11;;;;;;;10.77;6.40;;;;;;;2.33;94.33;101321.16;4997201;28;20058;-71
2021/03/18 00:50:42;;;;;;;14.38;7.03;;;;;;;2.22;93.90;101303.66;4995622;28;20054;-72
2021/03/18 00:53:09;;;;;;;;;;;;;;;2.34;93.73;101328.19;4995070;28;20443;-72
2021/03/18 00:55:36;;;;;;;9.63;6.80;;;;;;;2.34;93.66;101328.19;4995847;28;19926;-71
2021/03/18 00:58:03;;;;;;;11.85;8.05;;;;;;;2.35;93.52;101314.13;4994980;28;20058;-71
2021/03/18 01:00:37;;;;;;;16.35;7.40;;;;;;;2.42;93.01;101326.34;5011459;28;20057;-72
2021/03/18 01:03:04;;;;;;;12.43;6.40;;;;;;;2.34;93.72;101321.13;5015472;28;20053;-72
2021/03/18 01:05:39;;;;;;;11.23;6.45;;;;;;;2.42;93.17;101321.09;5015177;28;20045;-70
2021/03/18 01:08:07;;;;;;;10.15;6.47;;;;;;;2.37;93.50;101320.22;5015255;28;20053;-71
2021/03/18 01:10:48;;;;;;;12.55;6.95;;;;;;;2.34;93.50;101329.03;5014043;28;20050;-70
2021/03/18 01:13:19;;;;;;;7.60;6.30;;;;;;;2.39;93.12;101329.03;5014024;28;20443;-71
2021/03/18 01:15:57;;;;;;;11.77;7.20;;;;;;;2.26;93.23;101330.84;5014975;28;20168;-71
2021/03/18 01:18:28;;;;;;;10.75;6.75;;;;;;;2.31;93.59;101336.97;5014050;28;20120;-71
2021/03/18 01:20:55;;;;;;;12.55;7.03;;;;;;;2.28;93.51;101342.25;5014878;28;20448;-71
2021/03/18 01:23:21;;;;;;;11.35;6.75;;;;;;;2.28;93.77;101352.78;5014878;28;20062;-71
2021/03/18 01:25:47;;;;;;;11.75;7.43;;;;;;;2.27;93.39;101351.03;5014894;28;20054;-70
2021/03/18 01:28:14;;;;;;;15.52;6.70;;;;;;;2.35;93.48;101343.09;5014923;28;20431;-71
2021/03/18 01:30:51;;;;;;;12.40;6.45;;;;;;;2.36;93.24;101345.72;5015209;28;20057;-71
2021/03/18 01:33:17;;;;;;;10.98;6.72;;;;;;;2.33;93.57;101337.84;5014120;28;20049;-70
2021/03/18 01:35:44;;;;;;;11.57;7.00;;;;;;;2.33;93.57;101339.59;5014666;28;20050;-71
2021/03/18 01:38:10;;;;;;;8.35;6.25;;;;;;;2.31;92.91;101329.94;5015050;28;20076;-72
2021/03/18 01:40:36;;;;;;;9.13;5.68;;;;;;;2.29;93.16;101323.81;5014594;28;20144;-71
2021/03/18 01:43:02;;;;;;;13.07;6.45;;;;;;;2.40;92.78;101336.03;5014914;28;20057;-70
2021/03/18 01:45:29;;;;;;;13.90;6.40;;;;;;;2.36;92.39;101332.56;5014752;28;20057;-70
2021/03/18 01:47:59;;;;;;;13.45;5.82;;;;;;;2.29;92.60;101329.06;5014754;28;20104;-70
2021/03/18 01:50:28;;;;;;;11.80;6.68;;;;;;;2.27;92.41;101317.69;5014598;28;20062;-70
2021/03/18 01:52:57;;;;;;;13.73;6.47;;;;;;;2.38;92.85;101336.03;5013670;28;20490;-71
2021/03/18 01:55:38;;;;;;;13.57;6.40;;;;;;;2.39;92.82;101334.28;5014562;28;20046;-71
2021/03/18 01:58:05;;;;;;;13.18;6.95;;;;;;;2.31;92.27;101343.09;5014597;28;20443;-71
2021/03/18 02:00:33;;;;;;;12.55;6.22;;;;;;;2.36;92.36;101335.19;4998752;28;20128;-71
2021/03/18 02:03:00;;;;;;;10.63;6.47;;;;;;;2.31;92.12;101337.84;4995020;28;20133;-71
2021/03/18 02:05:28;;;;;;;10.00;6.03;;;;;;;2.35;92.15;101335.19;4993634;28;20701;-71
2021/03/18 02:07:56;;;;;;;15.55;6.68;;;;;;;2.42;91.73;101331.63;4994338;28;20050;-71
2021/03/18 02:10:31;;;;;;;16.65;7.07;;;;;;;2.39;91.67;101329.03;4997717;28;20058;-71
2021/03/18 02:12:59;;;;;;;10.43;7.35;;;;;;;2.22;92.50;101311.56;4998549;28;20500;-71
2021/03/18 02:15:30;;;;;;;17.25;7.85;;;;;;;2.44;91.90;101333.34;4997276;28;20057;-71
2021/03/18 02:18:24;;;;;;;12.48;7.97;;;;;;;2.37;92.08;101328.13;4997675;28;20125;-71
2021/03/18 02:21:34;;;;;;;20.83;10.32;;;;;;;2.34;92.73;101318.50;4998660;28;20139;-72
2021/03/18 02:24:13;;;;;;;21.52;10.70;;;;;;;2.36;91.07;101318.50;4997997;28;20081;-71
2021/03/18 02:27:12;;;;;;;20.13;10.95;;;;;;;2.27;91.17;101312.41;4997064;28;20108;-71
2021/03/18 02:30:16;;;;;;;23.25;11.25;;;;;;;2.23;90.79;101315.94;4997643;28;20396;-71
2021/03/18 02:33:03;;;;;;;24.23;12.88;;;;;;;2.19;91.61;101313.34;4998461;28;20387;-71
2021/03/18 02:35:56;;;;;;;30.80;16.20;;;;;;;2.24;91.66;101307.16;4998163;28;20050;-71
2021/03/18 02:38:32;;;;;;;28.75;14.48;;;;;;;2.14;92.52;101300.22;4996962;28;20050;-71
2021/03/18 02:41:17;;;;;;;20.35;11.68;;;;;;;2.11;92.09;101298.50;4997861;28;20058;-71
2021/03/18 02:43:48;;;;;;;21.08;11.30;;;;;;;2.03;92.33;101288.00;4998166;28;20456;-71
2021/03/18 02:46:15;;;;;;;13.32;8.07;;;;;;;1.98;92.23;101263.47;4997113;28;20050;-71
2021/03/18 02:48:45;;;;;;;18.48;10.23;;;;;;;2.06;92.01;101280.97;4980574;28;20133;-71
2021/03/18 02:51:18;;;;;;;17.88;9.70;;;;;;;1.97;92.45;101284.56;4996910;28;20132;-71
2021/03/18 02:53:47;;;;;;;16.17;9.77;;;;;;;1.95;92.54;101291.59;4998071;28;20054;-71
2021/03/18 02:56:17;;;;;;;17.00;9.57;;;;;;;1.96;92.54;101288.06;4997709;28;20050;-71
2021/03/18 02:58:47;;;;;;;18.70;9.85;;;;;;;1.88;92.03;101282.84;4998006;28;20050;-71
2021/03/18 03:01:13;;;;;;;14.30;9.23;;;;;;;1.82;92.02;101296.94;5017038;28;20054;-71
2021/03/18 03:03:43;;;;;;;15.90;9.00;;;;;;;1.75;92.90;101298.72;5017400;28;20061;-71
2021/03/18 03:06:13;;;;;;;21.63;10.38;;;;;;;1.83;92.31;101292.53;5017075;28;20136;-71
2021/03/18 03:08:41;;;;;;;21.63;10.73;;;;;;;1.74;92.25;101285.59;5017338;28;20054;-71
2021/03/18 03:11:08;;;;;;;20.70;10.38;;;;;;;1.75;92.36;101287.31;5017109;28;20057;-71
2021/03/18 03:13:39;;;;;;;21.02;10.40;;;;;;;1.67;92.99;101282.09;5019547;28;20065;-71
2021/03/18 03:16:10;;;;;;;21.63;12.75;;;;;;;1.73;91.93;101292.59;5018823;28;20046;-71
2021/03/18 03:18:38;;;;;;;22.60;12.85;;;;;;;1.71;91.89;101297.00;5016148;28;20053;-71
2021/03/18 03:21:06;;;;;;;22.88;13.65;;;;;;;1.65;92.17;101278.63;5016385;28;20050;-71
2021/03/18 03:23:33;;;;;;;22.45;12.07;;;;;;;1.79;92.69;101275.03;5017024;28;20050;-71
2021/03/18 03:26:01;;;;;;;26.10;11.38;;;;;;;1.74;92.20;101272.44;5048262;28;20050;-71
2021/03/18 03:28:30;;;;;;;22.23;11.32;;;;;;;1.65;92.62;101277.72;5016877;28;20053;-71
2021/03/18 03:30:58;;;;;;;20.35;12.98;;;;;;;1.58;93.69;101279.53;5016858;28;20049;-71
2021/03/18 03:33:25;;;;;;;22.90;10.75;;;;;;;1.48;93.58;101269.03;5016794;28;20347;-71
2021/03/18 03:35:51;;;;;;;20.20;11.73;;;;;;;1.57;93.96;101283.06;5016840;28;20054;-71
2021/03/18 03:38:18;;;;;;;22.63;11.45;;;;;;;1.63;93.80;101270.72;5015441;28;20050;-71
2021/03/18 03:40:45;;;;;;;18.73;10.48;;;;;;;1.69;93.54;101287.38;5016527;28;20066;-71
2021/03/18 03:43:11;;;;;;;19.10;10.55;;;;;;;1.60;92.70;101283.91;5016231;28;20050;-71
2021/03/18 03:45:39;;;;;;;21.42;12.32;;;;;;;1.62;92.36;101276.88;5016350;28;20046;-71
2021/03/18 03:48:06;;;;;;;21.95;11.00;;;;;;;1.65;92.52;101277.72;5016509;28;20054;-71
2021/03/18 03:50:32;;;;;;;22.08;12.00;;;;;;;1.49;92.41;101267.28;5016383;28;20359;-71
2021/03/18 03:53:09;;;;;;;27.23;12.10;;;;;;;1.43;92.64;101273.47;5016454;28;20093;-71
2021/03/18 03:56:00;;;;;;;17.30;11.32;;;;;;;1.54;92.40;101281.31;5015058;28;20416;-71
2021/03/18 03:58:46;;;;;;;18.02;10.80;;;;;;;1.56;92.34;101281.28;5016295;28;20054;-71
2021/03/18 04:01:27;;;;;;;22.30;10.93;;;;;;;1.54;92.59;101276.03;4996847;28;20054;-71
2021/03/18 04:04:09;;;;;;;24.60;11.52;;;;;;;1.40;92.27;101262.06;4995633;28;20058;-71
2021/03/18 04:06:36;;;;;;;;;;;;;;;1.53;92.39;101279.53;4997267;28;20046;-71
2021/03/18 04:09:06;;;;;;;24.38;11.93;;;;;;;1.58;92.12;101283.03;4996395;28;19925;-71
2021/03/18 04:11:38;;;;;;;27.73;15.45;;;;;;;1.48;91.83;101276.94;4996790;28;20050;-71
2021/03/18 04:14:06;;;;;;;31.88;15.23;;;;;;;1.56;91.68;101297.06;4996470;28;20050;-71
2021/03/18 04:16:36;;;;;;;28.05;14.63;;;;;;;1.57;91.77;101297.06;4996715;28;20054;-71
2021/03/18 04:19:04;;;;;;;25.13;14.75;;;;;;;1.57;92.22;101302.31;4997212;28;20109;-71
2021/03/18 04:21:38;;;;;;;30.85;17.05;;;;;;;1.58;91.89;101303.22;4996148;28;20487;-71
2021/03/18 04:24:06;;;;;;;27.52;16.88;;;;;;;1.53;91.90;101307.63;4995028;28;20054;-71
2021/03/18 04:26:36;;;;;;;32.63;15.35;;;;;;;1.46;91.68;101290.97;4996549;28;20050;-71
2021/03/18 04:29:04;;;;;;;23.25;14.80;;;;;;;1.42;91.88;101305.03;4996218;28;20050;-71
2021/03/18 04:31:33;;;;;;;27.50;17.17;;;;;;;1.35;92.80;101299.81;4996694;28;20058;-71
2021/03/18 04:34:00;;;;;;;34.10;15.05;;;;;;;1.33;92.51;101303.31;4995454;28;20104;-71
2021/03/18 04:36:28;;;;;;;30.05;15.38;;;;;;;1.29;92.78;101289.31;4995989;28;20061;-71
2021/03/18 04:38:56;;;;;;;22.98;15.32;;;;;;;1.24;92.54;101298.09;4994793;28;20054;-71
2021/03/18 04:41:23;;;;;;;25.35;14.23;;;;;;;1.22;92.70;101279.69;4995715;28;20062;-71
2021/03/18 04:43:52;;;;;;;21.55;12.90;;;;;;;1.33;92.94;101304.22;4995813;28;20086;-71
2021/03/18 04:46:19;;;;;;;20.58;11.88;;;;;;;1.39;92.81;101300.66;4995763;28;20058;-71
2021/03/18 04:48:46;;;;;;;25.42;12.07;;;;;;;1.31;92.47;101290.16;4995840;28;20089;-71
2021/03/18 04:51:13;;;;;;;19.92;10.88;;;;;;;1.40;92.51;101289.25;4995695;28;20411;-71
2021/03/18 04:53:39;;;;;;;18.48;12.45;;;;;;;1.40;92.74;101272.59;4995615;28;20129;-71
2021/03/18 04:56:08;;;;;;;20.90;13.15;;;;;;;1.46;92.12;101269.94;4995776;28;20046;-71
2021/03/18 04:58:37;;;;;;;24.73;11.82;;;;;;;1.54;91.96;101283.06;4979034;28;20058;-71
2021/03/18 05:01:04;;;;;;;21.83;11.38;;;;;;;1.58;91.54;101282.16;5015454;28;20050;-71
2021/03/18 05:03:33;;;;;;;19.42;11.77;;;;;;;1.49;91.98;101278.69;5015526;28;20054;-71
2021/03/18 05:06:03;;;;;;;18.75;11.35;;;;;;;1.54;92.47;101276.03;5015222;28;20072;-71
2021/03/18 05:08:31;;;;;;;18.88;11.38;;;;;;;1.53;91.91;101286.56;5015045;28;20049;-71
2021/03/18 05:10:57;;;;;;;15.70;11.20;;;;;;;1.51;92.17;101276.03;5015242;28;20046;-71
2021/03/18 05:13:26;;;;;;;25.13;12.15;;;;;;;1.42;91.46;101270.84;5014996;28;20057;-71
2021/03/18 05:15:54;;;;;;;27.42;14.15;;;;;;;1.34;92.93;101277.00;5015437;28;20053;-71
2021/03/18 05:18:20;;;;;;;27.77;12.63;;;;;;;1.38;92.79;101269.09;5013957;28;20057;-72
2021/03/18 05:20:47;;;;;;;26.67;14.20;;;;;;;1.32;92.38;101270.88;5015065;28;20059;-72
2021/03/18 05:23:15;;;;;;;26.40;12.57;;;;;;;1.31;92.13;101263.00;5015444;28;20077;-72
2021/03/18 05:25:43;;;;;;;23.45;12.48;;;;;;;1.39;92.43;101270.84;5014947;28;20141;-72
2021/03/18 05:28:09;;;;;;;22.92;12.65;;;;;;;1.34;92.15;101260.34;5014972;28;20060;-72
2021/03/18 05:30:36;;;;;;;22.20;12.50;;;;;;;1.51;92.17;101272.56;5015237;28;20050;-72
2021/03/18 05:33:04;;;;;;;23.73;12.30;;;;;;;1.50;91.71;101266.41;5014254;28;20383;-72
2021/03/18 05:35:39;;;;;;;18.27;11.82;;;;;;;1.37;91.46;101256.81;5014849;28;20054;-72
2021/03/18 05:38:06;;;;;;;22.63;11.85;;;;;;;1.44;92.05;101264.69;5015290;28;20325;-72
2021/03/18 05:40:33;;;;;;;23.83;11.48;;;;;;;1.39;91.15;101253.31;5017246;28;20088;-72
2021/03/18 05:43:00;;;;;;;21.73;12.02;;;;;;;1.33;91.43;101267.38;5017096;28;20175;-72
2021/03/18 05:45:26;;;;;;;21.00;11.65;;;;;;;1.24;92.28;101267.41;5018279;28;20116;-73
2021/03/18 05:47:55;;;;;;;17.02;11.65;;;;;;;1.34;91.79;101268.25;5019670;28;20064;-72
2021/03/18 05:50:22;;;;;;;23.83;11.98;;;;;;;1.29;92.29;101270.91;5017719;28;20495;-72
2021/03/18 05:52:50;;;;;;;17.88;10.90;;;;;;;1.33;92.10;101258.59;5018740;28;20054;-72
2021/03/18 05:55:20;;;;;;;21.35;12.35;;;;;;;1.30;91.56;101256.84;5018540;28;20050;-72
2021/03/18 05:57:49;;;;;;;27.08;12.27;;;;;;;1.29;91.85;101263.00;5018790;28;20050;-72
2021/03/18 06:00:16;;;;;;;20.75;12.00;;;;;;;1.33;91.89;101256.84;5017578;28;20058;-72
2021/03/18 06:02:48;;;;;;;21.92;11.20;;;;;;;1.33;91.14;101254.22;5017900;28;20123;-72
2021/03/18 06:05:16;;;;;;;24.95;12.13;;;;;;;1.27;91.69;101258.63;5018237;28;20053;-72
2021/03/18 06:07:45;;;;;;;22.05;12.13;;;;;;;1.31;92.13;101247.22;5018341;28;20057;-72
2021/03/18 06:10:14;;;;;;;25.70;12.45;;;;;;;1.39;91.35;101247.16;5017072;28;20447;-72
2021/03/18 06:12:42;;;;;;;17.63;11.20;;;;;;;1.30;92.05;101241.06;5018586;28;20073;-73
2021/03/18 06:15:10;;;;;;;24.75;10.98;;;;;;;1.27;91.13;101249.00;5018019;28;20049;-72
2021/03/18 06:17:38;;;;;;;22.38;11.55;;;;;;;1.34;91.55;101252.47;5018094;28;20050;-73
2021/03/18 06:20:08;;;;;;;26.13;11.95;;;;;;;1.29;91.17;101230.56;5017897;28;20064;-73
2021/03/18 06:22:37;;;;;;;23.42;10.98;;;;;;;1.38;91.42;101238.41;5018316;28;20054;-73
2021/03/18 06:25:27;;;;;;;22.77;11.25;;;;;;;1.47;91.50;101232.22;5017798;28;20168;-73
2021/03/18 06:28:12;;;;;;;23.60;10.98;;;;;;;1.54;90.84;101240.94;5018252;28;20058;-74
2021/03/18 06:30:39;;;;;;;22.95;11.18;;;;;;;1.59;90.62;101241.81;5018097;28;20108;-74
2021/03/18 06:33:24;;;;;;;24.10;10.85;;;;;;;1.42;91.08;101229.59;5016966;28;20112;-73
2021/03/18 06:35:50;;;;;;;20.38;10.77;;;;;;;1.55;90.78;101234.81;5017957;28;20081;-74
2021/03/18 06:38:16;;;;;;;23.75;12.10;;;;;;;1.61;91.37;101233.03;5016965;28;20057;-73
2021/03/18 06:40:45;;;;;;;21.65;12.73;;;;;;;1.58;91.36;101232.16;5017368;28;20403;-73
2021/03/18 06:43:11;;;;;;;19.38;11.73;;;;;;;1.61;91.43;101225.13;5016617;28;20093;-73
2021/03/18 06:45:41;;;;;;;27.15;12.85;;;;;;;1.55;90.72;101230.41;5016383;28;20581;-73
2021/03/18 06:48:16;;;;;;;24.17;11.43;;;;;;;1.38;90.27;101217.38;5017518;28;20060;-73
2021/03/18 06:50:47;;;;;;;24.58;12.23;;;;;;;1.44;91.18;101226.97;5015996;28;20057;-75
2021/03/18 06:53:24;;;;;;;21.52;11.85;;;;;;;1.45;91.55;101226.97;5016835;28;20049;-74
2021/03/18 06:55:52;;;;;;;23.50;13.40;;;;;;;1.45;91.44;101229.59;5016276;28;20054;-75
2021/03/18 06:58:23;;;;;;;27.40;15.15;;;;;;;1.57;91.86;101222.53;5010924;28;20058;-74
2021/03/18 07:00:53;;;;;;;26.85;13.18;;;;;;;1.65;91.00;101204.03;5013829;28;20057;-76
2021/03/18 07:03:30;;;;;;;27.52;14.25;;;;;;;1.65;91.13;101215.44;5014619;28;20432;-73
2021/03/18 07:05:59;;;;;;;30.92;14.07;;;;;;;1.60;91.16;101211.97;5016899;28;20050;-74
2021/03/18 07:08:31;;;;;;;26.75;14.00;;;;;;;1.74;91.18;101207.47;5017575;28;20093;-73
2021/03/18 07:10:59;;;;;;;27.50;13.80;;;;;;;1.74;91.15;101214.53;5017188;28;20341;-75
2021/03/18 07:13:30;;;;;;;23.00;12.93;;;;;;;1.81;91.36;101215.31;5016317;28;20049;-74
2021/03/18 07:15:59;;;;;;;28.30;15.05;;;;;;;1.80;90.82;101209.19;5017349;28;20049;-72
2021/03/18 07:18:26;;;;;;;27.25;14.70;;;;;;;1.88;90.99;101209.13;5017035;28;20061;-74
2021/03/18 07:20:59;;;;;;;24.13;13.32;;;;;;;1.83;90.75;101206.53;4999637;28;20057;-72
2021/03/18 07:23:34;;;;;;;32.13;16.15;;;;;;;1.87;90.83;101205.59;5016657;28;20061;-74
2021/03/18 07:26:09;;;;;;;28.58;13.73;;;;;;;1.90;90.81;101212.63;5015835;28;20325;-75
2021/03/18 07:28:36;;;;;;;25.33;13.80;;;;;;;1.94;90.61;101206.44;5015567;28;20050;-74
2021/03/18 07:31:03;;;;;;;30.20;13.35;;;;;;;1.95;90.04;101208.19;5019457;28;20110;-74
2021/03/18 07:33:34;;;;;;;29.05;13.32;;;;;;;1.92;90.62;101208.22;5015916;28;20056;-73
2021/03/18 07:36:02;;;;;;;24.55;13.07;;;;;;;1.97;90.03;101206.41;5016813;28;20073;-74
2021/03/18 07:38:29;;;;;;;24.35;13.05;;;;;;;2.02;90.15;101198.50;5016392;28;20077;-73
2021/03/18 07:40:59;;;;;;;23.05;12.15;;;;;;;2.16;89.95;101190.44;5013597;28;20054;-73
2021/03/18 07:43:26;;;;;;;23.30;12.45;;;;;;;2.21;88.84;101188.66;5015871;28;20140;-74
2021/03/18 07:45:53;;;;;;;25.85;13.35;;;;;;;2.10;88.99;101185.25;5015853;28;20490;-74
2021/03/18 07:48:22;;;;;;;28.35;13.93;;;;;;;2.23;88.71;101178.97;5015999;28;20065;-73
2021/03/18 07:50:50;;;;;;;28.00;13.77;;;;;;;2.34;88.61;101168.31;5016223;28;20050;-74
2021/03/18 07:53:20;;;;;;;25.08;14.93;;;;;;;2.50;88.93;101162.91;5016416;28;20049;-74
2021/03/18 07:55:48;;;;;;;28.63;15.25;;;;;;;2.51;87.82;101162.88;5016516;28;20050;-72
2021/03/18 07:58:34;;;;;;;29.60;15.38;;;;;;;2.52;87.36;101166.38;5016363;28;20056;-72
2021/03/18 08:01:00;;;;;;;28.27;15.45;;;;;;;2.62;87.66;101164.53;4996531;28;20116;-73
2021/03/18 08:03:29;;;;;;;32.10;16.35;;;;;;;2.71;87.56;101165.28;5004345;28;20077;-72
2021/03/18 08:05:57;;;;;;;27.75;16.77;;;;;;;2.77;87.23;101168.75;5015510;28;20053;-72
2021/03/18 08:08:33;;;;;;;34.95;16.48;;;;;;;2.77;87.51;101177.50;5016590;28;20049;-72
2021/03/18 08:11:10;;;;;;;34.92;15.95;;;;;;;2.87;87.11;101162.44;5018734;28;20415;-72
2021/03/18 08:13:41;;;;;;;32.42;15.95;;;;;;;2.99;86.68;101169.31;5036078;28;20064;-72
2021/03/18 08:16:28;;;;;;;32.05;15.60;;;;;;;2.99;86.00;101161.41;5035905;28;20065;-72
2021/03/18 08:18:55;;;;;;;37.63;17.42;;;;;;;3.11;86.32;101171.78;5035876;28;20053;-74
2021/03/18 08:21:36;;;;;;;26.50;16.05;;;;;;;3.08;85.16;101170.97;5035955;28;20053;-71
2021/03/18 08:24:05;;;;;;;35.88;14.82;;;;;;;3.17;85.76;101169.97;5030637;28;20057;-73
2021/03/18 08:26:51;;;;;;;28.48;16.50;;;;;;;3.25;85.70;101176.00;5015067;28;20125;-72
2021/03/18 08:29:22;;;;;;;30.48;15.98;;;;;;;3.25;85.13;101178.66;5025317;28;20053;-72
2021/03/18 08:31:50;;;;;;;;;;;;;;;3.35;85.00;101184.66;5014619;28;20343;-72
2021/03/18 08:34:20;;;;;;;29.42;15.27;;;;;;;3.34;84.07;101178.53;5014226;28;19922;-73
2021/03/18 08:36:58;;;;;;;26.65;15.85;;;;;;;3.45;84.41;101172.22;5015311;28;20045;-72
2021/03/18 08:39:39;;;;;;;27.42;15.95;;;;;;;3.37;85.45;101167.03;5015400;28;20049;-70
2021/03/18 08:42:28;;;;;;;33.15;16.08;;;;;;;3.44;84.62;101183.66;5014434;28;20131;-72
2021/03/18 08:44:56;;;;;;;26.20;14.88;;;;;;;3.31;84.29;101175.94;5026526;28;20061;-70
2021/03/18 08:47:35;;;;;;;23.98;14.57;;;;;;;3.38;85.05;101193.41;5029940;28;20057;-73
2021/03/18 08:50:05;;;;;;;27.52;15.38;;;;;;;3.49;84.08;101185.34;5033125;28;20054;-71
2021/03/18 08:52:40;;;;;;;25.17;14.25;;;;;;;3.59;82.70;101183.44;5017906;28;20406;-71
2021/03/18 08:55:11;;;;;;;26.08;14.63;;;;;;;3.60;83.62;101179.03;5024943;28;20424;-71
2021/03/18 08:57:39;;;;;;;26.75;15.38;;;;;;;3.65;82.91;101188.63;5028958;28;20058;-70
2021/03/18 09:00:18;;;;;;;26.13;14.43;;;;;;;3.72;82.92;101183.25;5015038;28;20049;-71
2021/03/18 09:02:46;;;;;;;25.80;14.18;;;;;;;3.74;82.39;101181.44;5014682;28;20061;-71
2021/03/18 09:05:17;;;;;;;28.45;14.95;;;;;;;3.81;83.07;101191.00;5015065;28;20096;-71
2021/03/18 09:07:51;;;;;;;25.67;13.93;;;;;;;3.52;82.48;101192.34;5014568;28;20046;-70
2021/03/18 09:10:19;;;;;;;25.83;14.30;;;;;;;3.76;81.34;101187.59;5013997;28;20064;-71
2021/03/18 09:12:53;;;;;;;28.17;14.90;;;;;;;3.81;82.68;101188.38;5014360;28;20056;-71
2021/03/18 09:15:25;;;;;;;27.80;15.25;;;;;;;4.00;82.59;101185.41;5015013;28;20451;-72
2021/03/18 09:17:55;;;;;;;25.98;12.98;;;;;;;4.20;80.75;101200.94;5024164;28;20049;-72
2021/03/18 09:20:32;;;;;;;24.92;13.07;;;;;;;4.24;79.08;101201.75;5021401;28;20057;-72
2021/03/18 09:23:13;;;;;;;29.67;13.70;;;;;;;4.11;79.30;101180.84;5018102;28;20503;-72
2021/03/18 09:25:42;;;;;;;24.48;13.32;;;;;;;4.31;79.52;101185.75;5018756;28;20363;-73
2021/03/18 09:28:10;;;;;;;31.98;14.13;;;;;;;4.40;80.42;101197.06;5018285;28;20050;-71
2021/03/18 09:30:40;;;;;;;24.67;14.02;;;;;;;4.45;79.34;101196.06;5018798;28;20054;-72
2021/03/18 09:33:22;;;;;;;21.75;13.88;;;;;;;4.53;79.48;101197.69;5018101;28;20769;-71
2021/03/18 09:35:51;;;;;;;22.05;13.82;;;;;;;4.64;78.63;101179.88;5019263;28;20046;-73
2021/03/18 09:38:23;;;;;;;31.13;14.20;;;;;;;4.79;77.06;101188.41;5017905;28;20050;-72
2021/03/18 09:40:49;;;;;;;30.08;16.25;;;;;;;4.56;77.41;101173.84;5018660;28;20069;-71
2021/03/18 09:43:18;;;;;;;26.27;13.63;;;;;;;4.55;77.45;101185.31;5018217;28;20050;-73
2021/03/18 09:45:50;;;;;;;27.95;15.82;;;;;;;4.49;76.87;101166.03;5018719;28;20053;-71
2021/03/18 09:48:38;;;;;;;23.30;14.52;;;;;;;4.57;78.05;101179.09;5024775;28;20065;-74
2021/03/18 09:51:11;;;;;;;30.90;15.90;;;;;;;4.68;78.74;101173.59;5016428;28;20054;-73
2021/03/18 09:53:39;;;;;;;23.95;12.90;;;;;;;4.68;75.98;101184.19;5018015;28;20054;-73
2021/03/18 09:56:09;;;;;;;28.70;12.60;;;;;;;4.52;75.94;101180.97;5019865;28;20424;-76
2021/03/18 09:58:37;;;;;;;22.73;11.77;;;;;;;4.38;76.15;101175.06;5018215;28;20045;-75
2021/03/18 10:01:17;;;;;;;29.27;14.05;;;;;;;4.38;78.34;101168.03;5016964;28;20050;-74
2021/03/18 10:04:14;;;;;;;25.37;12.40;;;;;;;4.58;76.87;101180.00;5017982;28;20129;-74
2021/03/18 10:06:51;;;;;;;32.92;12.15;;;;;;;4.61;77.71;101180.78;5016695;28;20042;-76
2021/03/18 10:09:32;;;;;;;27.83;11.60;;;;;;;4.62;77.48;101171.06;5016318;28;20109;-73
2021/03/18 10:12:05;;;;;;;24.52;12.20;;;;;;;4.54;78.09;101173.00;5016412;28;20136;-73
2021/03/18 10:14:34;;;;;;;27.08;12.70;;;;;;;4.61;78.01;101170.22;5017704;28;20115;-72
2021/03/18 10:17:09;;;;;;;18.75;10.20;;;;;;;4.65;76.08;101176.31;5018161;28;20053;-70
2021/03/18 10:19:40;;;;;;;24.95;11.65;;;;;;;4.41;75.81;101152.09;5017767;28;20408;-71
2021/03/18 10:22:09;;;;;;;24.45;12.13;;;;;;;4.46;75.51;101163.44;5020870;28;20371;-71
2021/03/18 10:24:36;;;;;;;28.90;13.00;;;;;;;4.49;77.15;101163.38;5019780;28;20112;-72
2021/03/18 10:27:15;;;;;;;26.05;13.68;;;;;;;4.47;77.29;101157.25;5018937;28;20440;-73
2021/03/18 10:29:44;;;;;;;24.60;12.27;;;;;;;4.37;77.70;101149.53;5020008;28;20057;-71
2021/03/18 10:32:15;;;;;;;23.60;11.15;;;;;;;4.69;76.77;101145.41;5018333;28;20050;-71
2021/03/18 10:34:55;;;;;;;19.50;9.55;;;;;;;4.98;75.20;101146.53;5017388;28;20513;-70
2021/03/18 10:37:36;;;;;;;21.77;10.82;;;;;;;5.10;74.72;101153.34;5015038;28;20052;-71
2021/03/18 10:40:10;;;;;;;18.90;9.85;;;;;;;5.03;75.26;101144.66;5016786;28;20058;-73
2021/03/18 10:42:37;;;;;;;18.88;9.90;;;;;;;5.03;75.86;101119.06;5015467;28;20065;-72
2021/03/18 10:45:30;;;;;;;28.02;10.95;;;;;;;5.32;76.06;101129.91;5020631;28;20075;-72
2021/03/18 10:47:59;;;;;;;21.23;9.82;;;;;;;5.50;74.67;101133.88;5015864;28;20050;-74
2021/03/18 10:50:28;;;;;;;16.80;9.03;;;;;;;5.77;71.32;101126.16;5018086;28;20046;-75
2021/03/18 10:53:05;;;;;;;16.33;8.05;;;;;;;5.64;71.21;101130.03;5015777;28;20054;-73
2021/03/18 10:55:39;;;;;;;22.00;9.60;;;;;;;5.34;71.49;101136.00;5018812;28;20045;-75
2021/03/18 10:58:20;;;;;;;21.23;9.10;;;;;;;5.44;71.40;101126.97;5017119;28;20061;-73
2021/03/18 11:00:48;;;;;;;19.35;8.82;;;;;;;5.41;71.23;101136.75;5007646;28;20049;-74
2021/03/18 11:03:17;;;;;;;20.38;9.23;;;;;;;5.47;69.38;101128.66;5017471;28;20054;-73
2021/03/18 11:05:51;;;;;;;16.00;7.45;;;;;;;5.50;68.82;101123.28;5017356;28;20046;-78
2021/03/18 11:08:27;;;;;;;20.77;8.27;;;;;;;5.58;69.92;101116.00;5016190;28;20096;-74
2021/03/18 11:10:53;;;;;;;20.38;7.28;;;;;;;5.61;69.86;101104.47;5014819;28;20053;-74
2021/03/18 11:13:22;;;;;;;19.00;6.75;;;;;;;5.62;67.92;101122.09;5016909;28;20054;-72
2021/03/18 11:16:01;;;;;;;15.45;7.72;;;;;;;5.67;66.82;101119.38;5016904;28;20053;-74
2021/03/18 11:18:38;;;;;;;16.13;6.53;;;;;;;5.98;68.38;101107.97;5019465;28;20050;-74
2021/03/18 11:21:25;;;;;;;14.10;6.00;;;;;;;5.95;65.09;101105.41;5016944;28;20057;-73
2021/03/18 11:23:55;;;;;;;11.43;5.72;;;;;;;5.96;65.26;101099.19;5015055;28;20431;-73
2021/03/18 11:26:25;;;;;;;16.10;4.70;;;;;;;5.97;64.59;101092.97;5034691;28;20052;-74
2021/03/18 11:28:58;;;;;;;14.55;5.25;;;;;;;5.77;62.97;101057.28;5017301;28;20052;-73
2021/03/18 11:31:28;;;;;;;10.70;4.20;;;;;;;6.08;63.93;101093.59;5016137;28;20054;-74
2021/03/18 11:33:55;;;;;;;11.70;3.60;;;;;;;6.11;61.81;101090.00;5015622;28;20049;-73
2021/03/18 11:36:22;;;;;;;9.05;3.60;;;;;;;6.18;64.41;101086.28;5015529;28;20204;-73
2021/03/18 11:38:49;;;;;;;11.55;3.90;;;;;;;6.24;62.82;101090.53;5015628;28;20049;-73
2021/03/18 11:41:16;;;;;;;13.98;4.80;;;;;;;6.13;64.66;101085.53;5015584;28;20093;-73